Time;durP1;ratioP1;P1;durP2;ratioP2;P2;SDS_P1;SDS_P2;PMS_P1;PMS_P2;Temp;Humidity;BMP_temperature;BMP_pressure;BME280_temperature;BME280_humidity;BME280_pressure;Samples;Min_cycle;Max_cycle;Signal;HPM_P1;HPM_P2
2023/12/06 05:05:36;;;;;;;0.30;0.30;;;5.40;99.90;;;;;;5750216;23;20212;-67
2023/12/06 05:08:03;;;;;;;0.40;0.40;;;5.40;99.90;;;;;;4954929;29;20191;-66
2023/12/06 05:10:28;;;;;;;0.40;0.40;;;5.40;99.90;;;;;;4955206;29;20184;-68
2023/12/06 05:12:54;;;;;;;0.30;0.30;;;5.40;99.90;;;;;;4954237;28;20181;-69
2023/12/06 05:15:19;;;;;;;0.30;0.30;;;5.50;99.90;;;;;;4947097;28;20205;-67
2023/12/06 05:17:45;;;;;;;0.40;0.40;;;5.50;99.90;;;;;;4978048;28;20168;-67
2023/12/06 05:20:11;;;;;;;0.40;0.40;;;5.50;99.90;;;;;;4953756;28;20180;-69
2023/12/06 05:22:37;;;;;;;0.30;0.30;;;5.50;99.90;;;;;;4939428;29;20538;-68
2023/12/06 05:25:06;;;;;;;0.30;0.30;;;5.50;99.90;;;;;;4938831;29;20219;-67
2023/12/06 05:27:32;;;;;;;0.30;0.30;;;5.50;99.90;;;;;;4947475;28;20914;-67
2023/12/06 05:29:58;;;;;;;0.30;0.30;;;5.50;99.90;;;;;;4956824;29;20187;-66
2023/12/06 05:32:24;;;;;;;0.30;0.30;;;5.50;99.90;;;;;;4957984;29;20179;-67
2023/12/06 05:34:49;;;;;;;0.30;0.30;;;5.50;99.90;;;;;;4957252;29;20213;-67
2023/12/06 05:37:15;;;;;;;0.30;0.30;;;5.50;99.90;;;;;;4957662;29;20183;-68
2023/12/06 05:39:41;;;;;;;0.30;0.30;;;5.50;99.90;;;;;;4958336;29;20235;-67
2023/12/06 05:42:07;;;;;;;0.30;0.30;;;5.50;99.90;;;;;;4958168;29;20176;-69
2023/12/06 05:44:33;;;;;;;0.38;0.38;;;5.50;99.90;;;;;;4938471;29;20192;-66
2023/12/06 05:46:59;;;;;;;0.30;0.30;;;5.60;99.90;;;;;;4954515;29;20605;-67
2023/12/06 05:49:25;;;;;;;0.30;0.30;;;5.50;99.90;;;;;;4957971;29;20174;-66
2023/12/06 05:51:51;;;;;;;0.30;0.30;;;5.50;99.90;;;;;;4958032;29;20705;-68
2023/12/06 05:54:17;;;;;;;0.30;0.30;;;5.60;99.90;;;;;;4952484;29;20267;-67
2023/12/06 05:56:43;;;;;;;0.40;0.40;;;5.60;99.90;;;;;;4938794;29;20530;-68
2023/12/06 05:59:08;;;;;;;0.20;0.20;;;5.60;99.90;;;;;;4938756;29;20572;-66
2023/12/06 06:01:34;;;;;;;0.30;0.30;;;5.60;99.90;;;;;;4939607;29;20215;-66
2023/12/06 06:04:00;;;;;;;0.40;0.40;;;5.60;99.90;;;;;;4956000;29;20678;-67
2023/12/06 06:06:26;;;;;;;0.30;0.30;;;5.60;99.90;;;;;;4957324;29;20550;-68
2023/12/06 06:08:51;;;;;;;0.40;0.40;;;5.60;99.90;;;;;;4957832;29;20462;-67
2023/12/06 06:11:17;;;;;;;0.30;0.30;;;5.60;99.90;;;;;;4942005;29;20310;-67
2023/12/06 06:13:42;;;;;;;0.30;0.30;;;5.60;99.90;;;;;;4938470;29;20180;-68
2023/12/06 06:16:08;;;;;;;0.30;0.30;;;5.60;99.90;;;;;;4938860;29;20292;-67
2023/12/06 06:18:33;;;;;;;0.40;0.40;;;5.60;99.90;;;;;;4938096;29;20177;-68
2023/12/06 06:21:05;;;;;;;0.30;0.30;;;5.50;99.90;;;;;;4941024;28;20187;-68
2023/12/06 06:23:31;;;;;;;0.30;0.30;;;5.50;99.90;;;;;;4957172;29;20216;-69
2023/12/06 06:25:57;;;;;;;0.30;0.30;;;5.60;99.90;;;;;;4955849;28;20195;-68
2023/12/06 06:28:22;;;;;;;0.30;0.30;;;5.60;99.90;;;;;;4956964;28;20182;-67
2023/12/06 06:30:48;;;;;;;0.40;0.40;;;5.60;99.90;;;;;;4956485;29;20176;-67
2023/12/06 06:33:13;;;;;;;0.30;0.30;;;5.50;99.90;;;;;;4947527;29;20719;-66
2023/12/06 06:35:39;;;;;;;0.30;0.30;;;5.60;99.90;;;;;;4952281;29;20211;-66
2023/12/06 06:38:04;;;;;;;0.30;0.30;;;5.60;99.90;;;;;;4957017;29;20255;-66
2023/12/06 06:40:30;;;;;;;0.33;0.33;;;5.60;99.90;;;;;;4953656;29;20187;-64
2023/12/06 06:42:56;;;;;;;0.30;0.30;;;5.60;99.90;;;;;;4946837;29;20185;-68
2023/12/06 06:45:21;;;;;;;0.30;0.30;;;5.60;99.90;;;;;;4955616;28;20670;-70
2023/12/06 06:47:47;;;;;;;0.30;0.30;;;5.60;99.90;;;;;;4967300;28;20267;-66
2023/12/06 06:50:12;;;;;;;0.30;0.30;;;5.60;99.90;;;;;;4964248;28;20183;-66
2023/12/06 06:52:38;;;;;;;0.30;0.30;;;5.60;99.90;;;;;;4937527;29;20718;-66
2023/12/06 06:55:07;;;;;;;0.30;0.30;;;5.60;99.90;;;;;;4936551;29;20204;-67
2023/12/06 06:57:32;;;;;;;0.30;0.30;;;5.60;99.90;;;;;;4947084;28;20243;-67
2023/12/06 06:59:58;;;;;;;0.30;0.30;;;5.60;99.90;;;;;;4959481;28;20185;-67
2023/12/06 07:02:24;;;;;;;0.27;0.27;;;5.60;99.90;;;;;;4953941;29;20593;-67
2023/12/06 07:04:51;;;;;;;0.37;0.37;;;5.60;99.90;;;;;;4954491;29;20218;-67
2023/12/06 07:07:17;;;;;;;0.30;0.30;;;5.60;99.90;;;;;;4930671;29;20685;-67
2023/12/06 07:09:42;;;;;;;0.30;0.30;;;5.60;99.90;;;;;;4936899;29;20183;-65
2023/12/06 07:12:09;;;;;;;0.30;0.30;;;5.70;99.90;;;;;;4936749;29;20507;-67
2023/12/06 07:14:35;;;;;;;0.30;0.30;;;5.70;99.90;;;;;;4936159;29;20176;-65
2023/12/06 07:17:01;;;;;;;0.30;0.30;;;5.70;99.90;;;;;;4936662;29;20203;-66
2023/12/06 07:19:26;;;;;;;0.30;0.30;;;5.70;99.90;;;;;;4936433;29;20174;-66
2023/12/06 07:21:52;;;;;;;0.30;0.30;;;5.70;99.90;;;;;;4936912;29;20428;-67
2023/12/06 07:24:20;;;;;;;0.30;0.30;;;5.70;99.90;;;;;;4936344;29;20555;-69
2023/12/06 07:26:45;;;;;;;0.30;0.30;;;5.80;99.90;;;;;;4936574;29;20241;-70
2023/12/06 07:29:12;;;;;;;0.30;0.30;;;5.80;99.90;;;;;;4936637;29;20177;-68
2023/12/06 07:31:39;;;;;;;0.30;0.30;;;5.80;99.90;;;;;;4936566;29;20261;-69
2023/12/06 07:34:05;;;;;;;0.20;0.20;;;5.80;99.90;;;;;;4919353;29;20181;-68
2023/12/06 07:36:31;;;;;;;0.37;0.37;;;5.80;99.90;;;;;;4936475;29;20295;-68
2023/12/06 07:38:57;;;;;;;0.30;0.30;;;5.80;99.90;;;;;;4919041;29;20428;-73
2023/12/06 07:41:23;;;;;;;0.30;0.30;;;5.80;99.90;;;;;;4936192;29;20411;-68
2023/12/06 07:43:49;;;;;;;0.32;0.32;;;5.80;99.90;;;;;;4936266;29;20203;-69
2023/12/06 07:46:15;;;;;;;0.40;0.40;;;5.80;99.90;;;;;;4936179;29;20334;-70
2023/12/06 07:48:41;;;;;;;0.30;0.30;;;5.80;99.90;;;;;;4936389;29;20185;-68
2023/12/06 07:51:06;;;;;;;0.40;0.40;;;5.90;99.90;;;;;;4936463;29;20206;-68
2023/12/06 07:53:32;;;;;;;0.30;0.30;;;5.90;99.90;;;;;;4936474;29;20204;-68
2023/12/06 07:55:58;;;;;;;0.30;0.30;;;5.90;99.90;;;;;;4918924;29;20660;-68
2023/12/06 07:58:24;;;;;;;0.30;0.30;;;5.90;99.90;;;;;;4936229;29;20670;-68
2023/12/06 08:00:50;;;;;;;0.30;0.30;;;5.80;99.90;;;;;;4936306;29;20578;-69
2023/12/06 08:03:16;;;;;;;0.30;0.30;;;5.90;99.90;;;;;;4936263;29;20180;-68
2023/12/06 08:05:42;;;;;;;0.30;0.30;;;5.80;99.90;;;;;;4935601;29;20465;-70
2023/12/06 08:08:09;;;;;;;0.30;0.30;;;5.90;99.90;;;;;;4936000;29;20299;-69
2023/12/06 08:10:35;;;;;;;0.40;0.40;;;5.90;99.90;;;;;;4936204;29;20260;-66
2023/12/06 08:13:01;;;;;;;0.30;0.30;;;5.90;99.90;;;;;;4936028;29;20165;-68
2023/12/06 08:15:29;;;;;;;0.30;0.30;;;5.90;99.90;;;;;;4935479;29;20603;-69
2023/12/06 08:17:56;;;;;;;0.30;0.30;;;5.90;99.90;;;;;;4935800;29;20181;-69
2023/12/06 08:20:22;;;;;;;0.30;0.30;;;6.00;99.90;;;;;;4935788;29;20256;-68
2023/12/06 08:22:48;;;;;;;0.30;0.30;;;5.90;99.90;;;;;;4935838;29;20702;-69
2023/12/06 08:25:13;;;;;;;0.30;0.30;;;6.00;99.90;;;;;;4935294;29;20208;-67
2023/12/06 08:27:39;;;;;;;0.30;0.30;;;6.00;99.90;;;;;;4935780;29;20177;-67
2023/12/06 08:30:08;;;;;;;0.30;0.30;;;6.00;99.90;;;;;;4949218;29;20180;-69
2023/12/06 08:32:34;;;;;;;0.30;0.30;;;5.90;99.90;;;;;;4954736;29;20180;-68
2023/12/06 08:35:01;;;;;;;0.40;0.40;;;6.00;99.90;;;;;;4953592;29;20209;-69
2023/12/06 08:37:26;;;;;;;0.30;0.30;;;6.00;99.90;;;;;;4954529;29;20176;-69
2023/12/06 08:39:52;;;;;;;0.30;0.30;;;5.90;99.90;;;;;;4954571;29;20181;-70
2023/12/06 08:42:17;;;;;;;0.40;0.40;;;6.00;99.90;;;;;;4954969;29;20539;-67
2023/12/06 08:44:44;;;;;;;0.30;0.30;;;5.90;99.90;;;;;;4954288;29;20535;-69
2023/12/06 08:47:10;;;;;;;0.30;0.30;;;5.90;99.90;;;;;;4954755;28;20255;-68
2023/12/06 08:49:37;;;;;;;0.30;0.30;;;5.90;99.90;;;;;;4958440;29;20172;-69
2023/12/06 08:52:03;;;;;;;0.30;0.30;;;6.00;99.90;;;;;;4958698;29;20172;-68
2023/12/06 08:54:29;;;;;;;0.30;0.30;;;6.00;99.90;;;;;;4958683;29;20507;-69
2023/12/06 08:56:54;;;;;;;0.33;0.33;;;5.90;99.90;;;;;;4958414;29;20195;-66
2023/12/06 08:59:20;;;;;;;2.33;1.30;;;5.90;99.90;;;;;;4958224;29;20771;-67
2023/12/06 09:01:46;;;;;;;0.30;0.30;;;5.80;99.90;;;;;;4958635;29;20181;-67
2023/12/06 09:04:11;;;;;;;0.30;0.30;;;5.80;99.90;;;;;;4958408;29;20241;-67
2023/12/06 09:06:37;;;;;;;0.33;0.33;;;5.80;99.90;;;;;;4958261;29;20662;-68
2023/12/06 09:09:04;;;;;;;0.30;0.30;;;5.80;99.90;;;;;;4958366;29;20342;-69
2023/12/06 09:11:30;;;;;;;0.30;0.30;;;5.80;99.90;;;;;;4958522;29;20165;-68
2023/12/06 09:13:55;;;;;;;0.30;0.30;;;5.80;99.90;;;;;;4958715;29;20172;-69
2023/12/06 09:16:21;;;;;;;0.40;0.40;;;5.80;99.90;;;;;;4958455;29;20196;-68
2023/12/06 09:18:47;;;;;;;1.30;0.77;;;5.70;99.90;;;;;;4958551;29;20176;-68
2023/12/06 09:21:13;;;;;;;0.30;0.30;;;5.70;99.90;;;;;;4958456;29;20642;-70
2023/12/06 09:23:39;;;;;;;0.30;0.30;;;5.70;99.90;;;;;;4958603;29;20258;-69
2023/12/06 09:26:05;;;;;;;0.40;0.40;;;5.60;99.90;;;;;;4957254;29;20251;-69
2023/12/06 09:28:31;;;;;;;0.30;0.30;;;5.60;99.90;;;;;;4958108;29;20176;-66
2023/12/06 09:30:57;;;;;;;0.30;0.30;;;5.60;99.90;;;;;;4958002;29;20176;-69
2023/12/06 09:33:22;;;;;;;0.30;0.30;;;5.60;99.90;;;;;;4957830;29;20169;-67
2023/12/06 09:35:48;;;;;;;0.30;0.30;;;5.60;99.90;;;;;;4957352;29;20227;-70
2023/12/06 09:38:13;;;;;;;0.30;0.30;;;5.60;99.90;;;;;;4957851;29;20175;-67
2023/12/06 09:40:39;;;;;;;0.30;0.30;;;5.50;99.90;;;;;;4957715;29;20662;-67
2023/12/06 09:43:05;;;;;;;0.30;0.30;;;5.50;99.90;;;;;;4957761;29;20190;-69
2023/12/06 09:45:31;;;;;;;0.30;0.30;;;5.60;99.90;;;;;;4957279;29;20682;-66
2023/12/06 09:47:57;;;;;;;0.40;0.40;;;5.50;99.90;;;;;;4957495;29;20174;-69
2023/12/06 09:50:25;;;;;;;0.30;0.30;;;5.50;99.90;;;;;;4957777;29;20169;-68
2023/12/06 09:52:52;;;;;;;0.30;0.30;;;5.50;99.90;;;;;;4957714;29;20177;-67
2023/12/06 09:55:23;;;;;;;0.38;0.38;;;5.50;99.90;;;;;;4957096;29;20223;-68
2023/12/06 09:57:53;;;;;;;0.30;0.30;;;5.50;99.90;;;;;;4957540;29;20531;-69
2023/12/06 10:00:19;;;;;;;0.50;0.50;;;5.50;99.90;;;;;;4956145;28;20656;-67
2023/12/06 10:02:57;;;;;;;0.40;0.40;;;5.60;99.90;;;;;;4957604;29;20248;-69
2023/12/06 10:05:23;;;;;;;0.38;0.38;;;5.50;99.90;;;;;;4956932;29;20998;-69
2023/12/06 10:07:49;;;;;;;0.30;0.30;;;5.50;99.90;;;;;;4957163;29;20216;-69
2023/12/06 10:10:16;;;;;;;0.30;0.30;;;5.50;99.90;;;;;;4957052;29;20207;-67
2023/12/06 10:12:59;;;;;;;0.30;0.30;;;5.60;99.90;;;;;;4957191;29;20412;-69
2023/12/06 10:15:36;;;;;;;0.30;0.30;;;5.60;99.90;;;;;;4956740;29;20252;-68
2023/12/06 10:18:03;;;;;;;0.30;0.30;;;5.60;99.90;;;;;;4957293;29;20239;-68
2023/12/06 10:20:29;;;;;;;0.30;0.30;;;5.60;99.90;;;;;;4957054;29;20219;-69
2023/12/06 10:22:55;;;;;;;0.30;0.30;;;5.60;99.90;;;;;;4957169;29;20529;-68
2023/12/06 10:25:21;;;;;;;0.40;0.40;;;5.60;99.90;;;;;;4956346;29;20216;-70
2023/12/06 10:27:46;;;;;;;0.30;0.30;;;5.60;99.90;;;;;;4956813;29;20178;-67
2023/12/06 10:30:20;;;;;;;0.30;0.30;;;5.60;99.90;;;;;;4956790;29;20445;-68
2023/12/06 10:32:46;;;;;;;0.30;0.30;;;5.70;99.90;;;;;;4956828;29;20175;-69
2023/12/06 10:35:12;;;;;;;0.67;0.67;;;5.70;99.90;;;;;;4956548;29;20324;-69
2023/12/06 10:37:39;;;;;;;0.30;0.30;;;5.70;99.90;;;;;;4956946;29;20184;-69
2023/12/06 10:40:15;;;;;;;0.30;0.30;;;5.70;99.90;;;;;;4955625;29;20182;-69
2023/12/06 10:42:45;;;;;;;0.30;0.30;;;5.70;99.90;;;;;;4954780;29;20186;-70
2023/12/06 10:45:12;;;;;;;0.30;0.30;;;5.70;99.90;;;;;;4937322;29;20240;-69
2023/12/06 10:47:40;;;;;;;0.60;0.60;;;5.70;99.90;;;;;;4954772;29;20180;-68
2023/12/06 10:50:08;;;;;;;0.30;0.30;;;5.70;99.90;;;;;;4954789;29;20161;-69
2023/12/06 10:52:35;;;;;;;0.30;0.30;;;5.70;99.90;;;;;;4954663;29;20214;-69
2023/12/06 10:55:03;;;;;;;0.30;0.30;;;5.80;99.90;;;;;;4955133;29;20192;-70
2023/12/06 10:57:31;;;;;;;0.30;0.30;;;5.80;99.90;;;;;;4956445;29;20173;-68
2023/12/06 10:59:59;;;;;;;0.40;0.40;;;5.80;99.90;;;;;;4956420;29;20659;-69
2023/12/06 11:02:25;;;;;;;0.30;0.30;;;5.80;99.90;;;;;;4956522;29;20165;-69
2023/12/06 11:05:05;;;;;;;0.30;0.30;;;5.80;99.90;;;;;;4955820;29;20634;-69
2023/12/06 11:08:05;;;;;;;0.40;0.40;;;5.90;99.90;;;;;;4956010;29;20202;-70
2023/12/06 11:11:09;;;;;;;0.40;0.40;;;5.90;99.90;;;;;;4955784;28;20208;-68
2023/12/06 11:13:55;;;;;;;0.38;0.38;;;5.90;99.90;;;;;;4955531;29;20188;-67
2023/12/06 11:16:51;;;;;;;0.30;0.30;;;5.90;99.90;;;;;;4955854;29;20199;-68
2023/12/06 11:19:17;;;;;;;0.30;0.30;;;5.90;99.90;;;;;;4955936;29;20173;-69
2023/12/06 11:21:44;;;;;;;0.40;0.40;;;5.90;99.90;;;;;;4956196;29;20467;-68
2023/12/06 11:24:11;;;;;;;0.30;0.30;;;5.90;99.90;;;;;;4955367;29;20216;-68
2023/12/06 11:26:36;;;;;;;0.40;0.40;;;5.90;99.90;;;;;;4955564;29;20203;-67
2023/12/06 11:29:03;;;;;;;0.30;0.30;;;5.90;99.90;;;;;;4955441;28;20168;-70
2023/12/06 11:31:36;;;;;;;1.33;1.08;;;6.00;99.90;;;;;;4955566;29;20227;-69
2023/12/06 11:34:11;;;;;;;0.60;0.60;;;6.00;99.90;;;;;;4955426;29;20169;-69
2023/12/06 11:36:37;;;;;;;0.40;0.40;;;6.00;99.90;;;;;;4938363;29;20207;-69
2023/12/06 11:39:18;;;;;;;0.30;0.30;;;6.10;99.90;;;;;;4955668;29;20183;-70
2023/12/06 11:41:53;;;;;;;0.30;0.30;;;6.10;99.90;;;;;;4955949;29;20254;-70
2023/12/06 11:44:19;;;;;;;0.30;0.30;;;6.10;99.90;;;;;;4955446;29;20199;-70
2023/12/06 11:46:53;;;;;;;0.30;0.30;;;6.10;99.90;;;;;;4955688;29;20244;-69
2023/12/06 11:49:26;;;;;;;0.50;0.50;;;6.10;99.90;;;;;;4955943;29;20401;-70
2023/12/06 11:52:00;;;;;;;0.30;0.30;;;6.00;99.90;;;;;;4955716;29;20179;-69
2023/12/06 11:54:27;;;;;;;0.30;0.30;;;6.00;99.90;;;;;;4955173;29;20256;-67
2023/12/06 11:57:03;;;;;;;0.50;0.50;;;6.00;99.90;;;;;;4955626;29;20547;-68
2023/12/06 11:59:29;;;;;;;0.40;0.40;;;6.00;99.90;;;;;;4938374;29;20216;-70
2023/12/06 12:01:57;;;;;;;0.30;0.30;;;6.00;99.90;;;;;;4955408;29;20232;-69
2023/12/06 12:04:24;;;;;;;0.30;0.30;;;6.00;99.90;;;;;;4955446;29;20200;-69
2023/12/06 12:06:50;;;;;;;0.40;0.40;;;5.90;99.90;;;;;;4954985;29;20196;-69
2023/12/06 12:09:16;;;;;;;0.30;0.30;;;6.00;99.90;;;;;;4955108;29;20535;-69
2023/12/06 12:11:45;;;;;;;0.32;0.32;;;5.90;99.90;;;;;;4955524;29;20198;-67
2023/12/06 12:14:10;;;;;;;0.40;0.40;;;5.90;99.90;;;;;;4937809;29;20181;-68
2023/12/06 12:16:37;;;;;;;0.30;0.30;;;5.90;99.90;;;;;;4955159;29;20705;-68
2023/12/06 12:19:03;;;;;;;1.23;1.23;;;5.80;99.90;;;;;;4955404;29;20169;-68
2023/12/06 12:21:29;;;;;;;0.38;0.38;;;5.80;99.90;;;;;;4955170;29;20172;-67
2023/12/06 12:23:57;;;;;;;0.30;0.30;;;5.80;99.90;;;;;;4954285;28;20199;-68
2023/12/06 12:26:23;;;;;;;0.52;0.52;;;5.80;99.90;;;;;;4955043;29;20215;-69
2023/12/06 12:28:49;;;;;;;0.40;0.40;;;5.80;99.90;;;;;;4955401;29;20568;-70
2023/12/06 12:31:18;;;;;;;0.30;0.30;;;5.80;99.90;;;;;;4955204;29;20434;-67
2023/12/06 12:33:44;;;;;;;0.30;0.30;;;5.80;99.90;;;;;;4955002;29;20191;-69
2023/12/06 12:36:10;;;;;;;0.40;0.40;;;5.90;99.90;;;;;;4954737;29;20195;-68
2023/12/06 12:38:41;;;;;;;0.30;0.30;;;5.90;99.90;;;;;;4955218;29;20248;-68
2023/12/06 12:41:10;;;;;;;1.05;1.05;;;5.90;99.90;;;;;;4954953;29;20175;-69
2023/12/06 12:43:35;;;;;;;0.30;0.30;;;5.90;99.90;;;;;;4954852;29;20566;-68
2023/12/06 12:46:02;;;;;;;0.50;0.50;;;5.90;99.90;;;;;;4954757;29;20199;-68
2023/12/06 12:48:29;;;;;;;0.30;0.30;;;5.90;99.90;;;;;;4955280;29;20184;-70
2023/12/06 12:51:25;;;;;;;0.32;0.32;;;6.00;99.90;;;;;;4955324;29;20165;-69
2023/12/06 12:53:50;;;;;;;0.30;0.30;;;6.00;99.90;;;;;;4942519;29;20195;-69
2023/12/06 12:56:17;;;;;;;0.40;0.40;;;6.00;99.90;;;;;;4954539;29;20196;-70
2023/12/06 12:58:46;;;;;;;0.30;0.30;;;6.00;99.90;;;;;;4955077;29;20169;-70
2023/12/06 13:01:12;;;;;;;0.30;0.30;;;6.00;99.90;;;;;;4954781;29;20161;-70
2023/12/06 13:03:37;;;;;;;0.50;0.50;;;6.00;99.90;;;;;;4954955;29;20226;-67
2023/12/06 13:06:04;;;;;;;0.30;0.30;;;6.00;99.90;;;;;;4954647;29;20251;-68
2023/12/06 13:08:30;;;;;;;0.40;0.40;;;6.00;99.90;;;;;;4937549;29;20195;-70
2023/12/06 13:10:58;;;;;;;0.35;0.35;;;6.00;99.90;;;;;;4955003;29;20172;-69
2023/12/06 13:13:25;;;;;;;0.30;0.30;;;5.90;99.90;;;;;;4954698;29;20255;-67
2023/12/06 13:15:51;;;;;;;0.30;0.30;;;5.90;99.90;;;;;;4954222;29;20275;-69
2023/12/06 13:18:17;;;;;;;0.30;0.30;;;5.90;99.90;;;;;;4955090;29;20315;-68
2023/12/06 13:20:42;;;;;;;0.40;0.40;;;5.80;99.90;;;;;;4954910;29;20434;-68
2023/12/06 13:23:08;;;;;;;0.30;0.30;;;5.90;99.90;;;;;;4954721;29;20186;-69
2023/12/06 13:25:34;;;;;;;0.30;0.30;;;5.90;99.90;;;;;;4954419;29;20209;-68
2023/12/06 13:27:59;;;;;;;0.30;0.30;;;5.90;99.90;;;;;;4955051;29;20657;-68
2023/12/06 13:30:25;;;;;;;0.40;0.40;;;5.90;99.90;;;;;;4954565;29;20165;-67
2023/12/06 13:32:50;;;;;;;0.30;0.30;;;5.80;99.90;;;;;;4954751;29;20248;-69
2023/12/06 13:35:16;;;;;;;0.30;0.30;;;5.80;99.90;;;;;;4956418;28;20655;-67
2023/12/06 13:37:42;;;;;;;0.30;0.30;;;5.80;99.90;;;;;;4958233;29;20220;-68
2023/12/06 13:40:08;;;;;;;0.30;0.30;;;5.80;99.90;;;;;;4940815;29;20177;-69
2023/12/06 13:42:34;;;;;;;0.30;0.30;;;5.80;99.90;;;;;;4940701;29;20199;-68
2023/12/06 13:44:59;;;;;;;0.30;0.30;;;5.80;99.90;;;;;;4957481;29;21593;-66
2023/12/06 13:47:25;;;;;;;0.40;0.40;;;5.80;99.90;;;;;;4957918;29;20168;-68
2023/12/06 13:49:50;;;;;;;0.40;0.40;;;5.80;99.90;;;;;;4957866;29;20654;-69
2023/12/06 13:52:16;;;;;;;0.40;0.40;;;5.80;99.90;;;;;;4957769;29;20500;-67
2023/12/06 13:54:41;;;;;;;0.30;0.30;;;5.80;99.90;;;;;;4957773;29;20176;-67
2023/12/06 13:57:07;;;;;;;0.30;0.30;;;5.80;99.90;;;;;;4957753;29;20177;-66
2023/12/06 13:59:33;;;;;;;0.30;0.30;;;5.90;99.90;;;;;;4957591;29;20180;-68
2023/12/06 14:01:59;;;;;;;0.30;0.30;;;5.80;99.90;;;;;;4957637;29;20183;-72
2023/12/06 14:04:24;;;;;;;0.30;0.30;;;5.90;99.90;;;;;;4956962;29;20192;-68
2023/12/06 14:06:50;;;;;;;0.30;0.30;;;5.90;99.90;;;;;;4956547;29;20455;-66
2023/12/06 14:09:16;;;;;;;0.40;0.40;;;5.90;99.90;;;;;;4957661;29;20260;-65
2023/12/06 14:11:42;;;;;;;0.30;0.30;;;5.80;99.90;;;;;;4957201;29;20169;-68
2023/12/06 14:14:08;;;;;;;0.30;0.30;;;5.80;99.90;;;;;;4956967;29;20173;-69
2023/12/06 14:16:33;;;;;;;0.40;0.40;;;5.80;99.90;;;;;;4957570;29;20536;-67
2023/12/06 14:19:02;;;;;;;0.40;0.40;;;5.90;99.90;;;;;;4957359;29;20183;-66
2023/12/06 14:21:27;;;;;;;0.35;0.35;;;5.90;99.90;;;;;;4957503;29;20173;-66
2023/12/06 14:23:53;;;;;;;0.37;0.37;;;5.90;99.90;;;;;;4957104;29;20227;-64
2023/12/06 14:26:21;;;;;;;0.37;0.37;;;5.90;99.90;;;;;;4955964;29;20196;-66
2023/12/06 14:28:51;;;;;;;1.95;1.55;;;5.80;99.90;;;;;;4955734;29;20652;-65
2023/12/06 14:31:16;;;;;;;7.35;1.05;;;5.80;99.90;;;;;;4955297;29;20706;-66
2023/12/06 14:33:43;;;;;;;0.30;0.30;;;5.80;99.90;;;;;;4938402;29;20271;-65
2023/12/06 14:36:10;;;;;;;0.30;0.30;;;5.80;99.90;;;;;;4956195;29;20239;-65
2023/12/06 14:38:36;;;;;;;2.45;1.35;;;5.70;99.90;;;;;;4956719;29;20161;-66
2023/12/06 14:41:03;;;;;;;0.30;0.30;;;5.70;99.90;;;;;;4956884;29;20228;-65
2023/12/06 14:43:28;;;;;;;0.30;0.30;;;5.60;99.90;;;;;;4956976;29;20227;-65
2023/12/06 14:45:55;;;;;;;0.30;0.30;;;5.70;99.90;;;;;;4955786;28;20216;-66
2023/12/06 14:48:21;;;;;;;0.30;0.30;;;5.70;99.90;;;;;;4956775;29;20256;-65
2023/12/06 14:50:47;;;;;;;0.40;0.40;;;5.70;99.90;;;;;;4956886;29;20267;-65
2023/12/06 14:53:13;;;;;;;0.40;0.40;;;5.70;99.90;;;;;;4956830;29;20247;-65
2023/12/06 14:55:38;;;;;;;0.30;0.30;;;5.70;99.90;;;;;;4956349;29;20235;-65
2023/12/06 14:58:04;;;;;;;0.30;0.30;;;5.60;99.90;;;;;;4939309;29;20188;-66
2023/12/06 15:00:30;;;;;;;0.37;0.37;;;5.60;99.90;;;;;;4956888;29;20177;-64
2023/12/06 15:02:55;;;;;;;0.30;0.30;;;5.60;99.90;;;;;;4956824;29;20231;-65
2023/12/06 15:05:21;;;;;;;0.30;0.30;;;5.60;99.90;;;;;;4956401;29;20569;-66
2023/12/06 15:07:47;;;;;;;1.90;0.90;;;5.60;99.90;;;;;;4956608;29;20189;-65
2023/12/06 15:10:13;;;;;;;0.30;0.30;;;5.60;99.90;;;;;;4955617;29;20207;-65
2023/12/06 15:12:38;;;;;;;0.30;0.30;;;5.60;99.90;;;;;;4938454;29;20203;-64
2023/12/06 15:15:05;;;;;;;0.40;0.40;;;5.60;99.90;;;;;;4955186;29;20440;-65
2023/12/06 15:17:31;;;;;;;0.45;0.45;;;5.50;99.90;;;;;;4955645;29;20535;-65
2023/12/06 15:19:57;;;;;;;0.38;0.38;;;5.60;99.90;;;;;;4956507;29;20176;-65
2023/12/06 15:22:23;;;;;;;1.63;1.33;;;5.60;99.90;;;;;;4956333;29;20187;-65
2023/12/06 15:24:49;;;;;;;0.30;0.30;;;5.60;99.90;;;;;;4955602;29;20558;-65
2023/12/06 15:27:15;;;;;;;0.30;0.30;;;5.60;99.90;;;;;;4956299;29;20173;-65
2023/12/06 15:29:41;;;;;;;0.40;0.40;;;5.60;99.90;;;;;;4956028;29;20407;-64
2023/12/06 15:32:07;;;;;;;0.30;0.30;;;5.60;99.90;;;;;;4956099;29;20169;-64
2023/12/06 15:34:33;;;;;;;0.38;0.38;;;5.60;99.90;;;;;;4956035;29;20200;-65
2023/12/06 15:37:00;;;;;;;0.20;0.20;;;5.50;99.90;;;;;;4955878;29;20192;-65
2023/12/06 15:39:26;;;;;;;0.30;0.30;;;5.50;99.90;;;;;;4956230;29;20580;-64
2023/12/06 15:41:52;;;;;;;0.30;0.30;;;5.50;99.90;;;;;;4956157;29;20609;-66
2023/12/06 15:44:18;;;;;;;0.35;0.35;;;5.50;99.90;;;;;;4955831;29;20529;-66
2023/12/06 15:46:44;;;;;;;0.40;0.40;;;5.50;99.90;;;;;;4938328;29;20539;-66
2023/12/06 15:49:10;;;;;;;0.40;0.40;;;5.50;99.90;;;;;;4955840;29;20239;-65
2023/12/06 15:51:36;;;;;;;0.40;0.40;;;5.50;99.90;;;;;;4955881;29;20519;-66
2023/12/06 15:54:02;;;;;;;0.30;0.30;;;5.40;99.90;;;;;;4955599;29;20415;-66
2023/12/06 15:56:28;;;;;;;0.40;0.40;;;5.50;99.90;;;;;;4955635;29;20208;-65
2023/12/06 15:58:54;;;;;;;0.30;0.30;;;5.40;99.90;;;;;;4954973;28;20272;-65
2023/12/06 16:01:19;;;;;;;0.30;0.30;;;5.40;99.90;;;;;;4955816;29;20265;-65
2023/12/06 16:03:45;;;;;;;0.30;0.30;;;5.40;99.90;;;;;;4955484;29;20170;-66
2023/12/06 16:06:11;;;;;;;0.30;0.30;;;5.40;99.90;;;;;;4954974;29;20427;-65
2023/12/06 16:08:37;;;;;;;0.40;0.40;;;5.30;99.90;;;;;;4955862;29;20176;-65
2023/12/06 16:11:03;;;;;;;0.30;0.30;;;5.40;99.90;;;;;;4955643;29;20169;-65
2023/12/06 16:13:29;;;;;;;0.30;0.30;;;5.40;99.90;;;;;;4955560;29;20578;-65
2023/12/06 16:15:55;;;;;;;0.30;0.30;;;5.40;99.90;;;;;;4955057;29;20194;-64
2023/12/06 16:18:21;;;;;;;0.30;0.30;;;5.40;99.90;;;;;;4938097;29;20184;-65
2023/12/06 16:20:46;;;;;;;0.30;0.30;;;5.40;99.90;;;;;;4955336;29;20178;-65
2023/12/06 16:23:12;;;;;;;0.40;0.40;;;5.40;99.90;;;;;;4955233;29;20178;-64
2023/12/06 16:25:38;;;;;;;0.37;0.37;;;5.50;99.90;;;;;;4954930;29;20212;-65
2023/12/06 16:28:07;;;;;;;0.30;0.30;;;5.40;99.90;;;;;;4955466;29;20918;-64
2023/12/06 16:30:35;;;;;;;0.30;0.30;;;5.40;99.90;;;;;;4955351;29;20183;-64
2023/12/06 16:33:02;;;;;;;0.43;0.43;;;5.50;99.90;;;;;;4955272;29;20173;-65
2023/12/06 16:35:28;;;;;;;0.30;0.30;;;5.40;99.90;;;;;;4921836;29;20203;-66
2023/12/06 16:37:54;;;;;;;0.40;0.40;;;5.50;99.90;;;;;;4938136;29;20282;-64
2023/12/06 16:40:19;;;;;;;0.40;0.40;;;5.50;99.90;;;;;;4955311;29;20467;-64
2023/12/06 16:42:45;;;;;;;0.30;0.30;;;5.50;99.90;;;;;;4955111;29;20178;-66
2023/12/06 16:45:10;;;;;;;0.30;0.30;;;5.50;99.90;;;;;;4954603;29;20291;-64
2023/12/06 16:47:36;;;;;;;0.30;0.30;;;5.50;99.90;;;;;;4954981;29;20206;-66
2023/12/06 16:50:05;;;;;;;0.30;0.30;;;5.50;99.90;;;;;;4955054;29;20178;-64
2023/12/06 16:52:31;;;;;;;0.30;0.30;;;5.50;99.90;;;;;;4955173;29;20199;-64
2023/12/06 16:54:57;;;;;;;0.32;0.32;;;5.50;99.90;;;;;;4954755;29;20516;-65
2023/12/06 16:57:23;;;;;;;0.33;0.33;;;5.40;99.90;;;;;;4955114;29;20176;-65
2023/12/06 16:59:48;;;;;;;0.30;0.30;;;5.40;99.90;;;;;;4955010;29;20183;-65
2023/12/06 17:02:14;;;;;;;0.30;0.30;;;5.40;99.90;;;;;;4954793;29;20177;-64
2023/12/06 17:04:40;;;;;;;0.40;0.40;;;5.40;99.90;;;;;;4954072;29;20573;-65
2023/12/06 17:07:06;;;;;;;0.30;0.30;;;5.40;99.90;;;;;;4936655;29;20192;-65
2023/12/06 17:09:33;;;;;;;0.60;0.60;;;5.40;99.90;;;;;;4939175;29;20179;-66
2023/12/06 17:11:58;;;;;;;0.38;0.38;;;5.40;99.90;;;;;;4941217;29;20409;-65
2023/12/06 17:14:24;;;;;;;1.07;0.73;;;5.40;99.90;;;;;;4958237;29;20246;-65
2023/12/06 17:16:51;;;;;;;0.30;0.30;;;5.40;99.90;;;;;;4958434;29;20683;-64
2023/12/06 17:19:17;;;;;;;0.30;0.30;;;5.50;99.90;;;;;;4958465;29;20167;-67
2023/12/06 17:21:42;;;;;;;0.30;0.30;;;5.40;99.90;;;;;;4958472;29;20671;-66
2023/12/06 17:24:08;;;;;;;0.30;0.30;;;5.40;99.90;;;;;;4940974;29;20207;-66
2023/12/06 17:26:34;;;;;;;0.30;0.30;;;5.40;99.90;;;;;;4958346;29;20664;-64
2023/12/06 17:29:00;;;;;;;0.63;0.63;;;5.40;99.90;;;;;;4958346;29;20181;-65
2023/12/06 17:31:26;;;;;;;0.30;0.30;;;5.40;99.90;;;;;;4957886;29;20636;-66
2023/12/06 17:33:51;;;;;;;0.30;0.30;;;5.30;99.90;;;;;;4958146;29;20176;-66
2023/12/06 17:36:17;;;;;;;0.40;0.40;;;5.40;99.90;;;;;;4957916;29;20596;-65
2023/12/06 17:38:44;;;;;;;0.30;0.30;;;5.30;99.90;;;;;;4958307;29;20179;-65
2023/12/06 17:41:10;;;;;;;0.40;0.40;;;5.40;99.90;;;;;;4958253;29;20176;-64
2023/12/06 17:43:36;;;;;;;0.30;0.30;;;5.30;99.90;;;;;;4958355;29;20176;-66
2023/12/06 17:46:02;;;;;;;0.30;0.30;;;5.30;99.90;;;;;;4957608;29;20209;-66
2023/12/06 17:48:28;;;;;;;1.37;1.37;;;5.30;99.90;;;;;;4958122;29;20555;-65
2023/12/06 17:50:53;;;;;;;0.40;0.40;;;5.30;99.90;;;;;;4957840;29;20457;-67
2023/12/06 17:53:19;;;;;;;2.17;2.07;;;5.20;99.90;;;;;;4957947;29;20176;-65
2023/12/06 17:55:45;;;;;;;0.40;0.40;;;5.20;99.90;;;;;;4957502;29;20201;-65
2023/12/06 17:58:10;;;;;;;0.50;0.50;;;5.20;99.90;;;;;;4957802;29;20173;-67
2023/12/06 18:00:39;;;;;;;0.30;0.30;;;5.20;99.90;;;;;;4957715;29;20207;-67